Time;durP1;ratioP1;P1;durP2;ratioP2;P2;SDS_P1;SDS_P2;PMS_P1;PMS_P2;Temp;Humidity;BMP_temperature;BMP_pressure;BME280_temperature;BME280_humidity;BME280_pressure;Samples;Min_cycle;Max_cycle;Signal;HPM_P1;HPM_P2
2021/01/09 00:00:15;;;;;;;2.53;1.85;;;-0.40;67.10;;;;;;5056095;28;20029;-68
2021/01/09 00:02:42;;;;;;;3.13;2.00;;;-0.60;68.90;;;;;;5056359;28;20028;-68
2021/01/09 00:05:09;;;;;;;3.00;1.80;;;-0.60;66.10;;;;;;5056109;28;20052;-68
2021/01/09 00:07:36;;;;;;;2.25;1.60;;;-0.40;66.30;;;;;;5055980;28;20063;-68
2021/01/09 00:10:04;;;;;;;2.63;1.73;;;-0.40;64.90;;;;;;5056000;28;20055;-68
2021/01/09 00:12:29;;;;;;;4.20;2.08;;;-0.30;64.50;;;;;;5059331;28;20105;-68
2021/01/09 00:14:55;;;;;;;2.67;1.90;;;-0.30;64.70;;;;;;5058611;28;20129;-68
2021/01/09 00:17:21;;;;;;;3.53;2.40;;;-0.10;64.60;;;;;;5059926;28;20025;-68
2021/01/09 00:19:46;;;;;;;5.13;2.20;;;-0.10;65.00;;;;;;5058533;28;20036;-68
2021/01/09 00:22:12;;;;;;;3.47;2.33;;;0.00;65.90;;;;;;5059772;28;20033;-68
2021/01/09 00:24:38;;;;;;;3.47;1.63;;;-0.10;65.40;;;;;;5058414;28;20032;-68
2021/01/09 00:27:11;;;;;;;2.70;1.85;;;-0.10;65.50;;;;;;5059324;28;20444;-68
2021/01/09 00:29:40;;;;;;;1.92;1.35;;;-0.20;64.90;;;;;;5059336;28;20066;-68
2021/01/09 00:32:06;;;;;;;2.58;1.42;;;-0.30;63.60;;;;;;5059376;28;20017;-68
2021/01/09 00:34:32;;;;;;;2.75;1.83;;;-0.30;62.70;;;;;;5059301;28;20070;-68
2021/01/09 00:36:58;;;;;;;6.47;2.58;;;0.00;61.90;;;;;;5059561;28;20155;-68
2021/01/09 00:39:24;;;;;;;1.92;1.25;;;0.10;62.80;;;;;;5059185;28;20036;-68
2021/01/09 00:41:50;;;;;;;1.05;0.90;;;0.30;57.60;;;;;;5059398;28;20032;-68
2021/01/09 00:44:16;;;;;;;4.63;1.38;;;0.60;56.30;;;;;;5059375;28;20028;-68
2021/01/09 00:46:42;;;;;;;2.28;1.40;;;0.70;57.80;;;;;;5059078;28;20095;-68
2021/01/09 00:49:08;;;;;;;2.30;1.58;;;0.70;60.00;;;;;;5058977;28;20068;-68
2021/01/09 00:51:33;;;;;;;3.08;1.90;;;0.60;61.00;;;;;;5057975;28;20024;-68
2021/01/09 00:53:59;;;;;;;3.80;2.28;;;0.40;63.10;;;;;;5057864;28;20025;-68
2021/01/09 00:56:24;;;;;;;3.30;2.05;;;0.20;63.70;;;;;;5058000;28;20321;-68
2021/01/09 00:58:50;;;;;;;3.65;2.00;;;0.10;65.30;;;;;;5057768;28;20033;-68
2021/01/09 01:01:16;;;;;;;3.00;2.20;;;-0.10;66.40;;;;;;5058799;28;20021;-68
2021/01/09 01:03:42;;;;;;;3.17;2.10;;;-0.20;67.10;;;;;;5058768;28;20036;-68
2021/01/09 01:06:09;;;;;;;4.25;2.30;;;-0.30;68.30;;;;;;5058837;28;20025;-68
2021/01/09 01:08:35;;;;;;;2.60;1.83;;;-0.40;68.40;;;;;;5057581;28;20421;-68
2021/01/09 01:11:01;;;;;;;3.45;2.28;;;-0.50;66.60;;;;;;5058521;28;20025;-68
2021/01/09 01:13:27;;;;;;;3.25;1.98;;;-0.50;66.00;;;;;;5058564;28;20056;-68
2021/01/09 01:15:52;;;;;;;3.50;1.90;;;-0.50;66.90;;;;;;5058513;28;20048;-68
2021/01/09 01:18:22;;;;;;;4.30;1.92;;;-0.50;66.60;;;;;;5058437;28;20405;-68
2021/01/09 01:20:48;;;;;;;2.78;1.67;;;-0.50;67.40;;;;;;5058701;28;20033;-68
2021/01/09 01:23:14;;;;;;;2.80;1.98;;;-0.50;67.80;;;;;;5057493;28;20025;-68
2021/01/09 01:25:40;;;;;;;3.92;2.40;;;-0.60;68.40;;;;;;5058435;28;20471;-69
2021/01/09 01:28:05;;;;;;;4.00;1.85;;;-0.60;69.60;;;;;;5058291;28;20033;-68
2021/01/09 01:30:31;;;;;;;4.30;2.33;;;-0.70;69.90;;;;;;5058141;28;20033;-68
2021/01/09 01:32:57;;;;;;;3.85;2.70;;;-0.70;70.40;;;;;;5058206;28;20025;-68
2021/01/09 01:35:22;;;;;;;4.18;2.60;;;-0.80;71.30;;;;;;5058152;28;20029;-68
2021/01/09 01:37:48;;;;;;;4.80;2.00;;;-0.80;71.80;;;;;;5058106;28;20082;-68
2021/01/09 01:40:13;;;;;;;2.53;2.10;;;-0.90;71.50;;;;;;5058002;28;20413;-68
2021/01/09 01:42:39;;;;;;;3.85;2.85;;;-0.90;71.90;;;;;;5058016;28;20037;-68
2021/01/09 01:45:08;;;;;;;4.78;2.40;;;-0.90;72.40;;;;;;5057861;28;20039;-68
2021/01/09 01:47:33;;;;;;;3.08;1.88;;;-0.90;70.70;;;;;;5058074;28;20100;-68
2021/01/09 01:50:01;;;;;;;2.55;1.60;;;-0.90;68.40;;;;;;5058047;28;20481;-68
2021/01/09 01:52:27;;;;;;;3.88;1.73;;;-0.80;69.50;;;;;;5057846;28;20040;-68
2021/01/09 01:54:52;;;;;;;2.85;1.92;;;-0.80;71.20;;;;;;5057833;28;20095;-68
2021/01/09 01:57:18;;;;;;;3.05;1.95;;;-0.80;71.30;;;;;;5058004;28;20086;-68
2021/01/09 01:59:44;;;;;;;3.03;1.90;;;-0.80;71.60;;;;;;5057895;28;20025;-68
2021/01/09 02:02:12;;;;;;;2.60;1.52;;;-0.90;69.60;;;;;;5056603;28;20033;-68
2021/01/09 02:04:38;;;;;;;3.03;1.50;;;-0.80;69.60;;;;;;5056783;28;20329;-68
2021/01/09 02:07:11;;;;;;;2.90;1.52;;;-0.80;69.30;;;;;;5057565;28;20041;-68
2021/01/09 02:09:41;;;;;;;2.28;1.70;;;-0.80;68.20;;;;;;5057716;28;20036;-68
2021/01/09 02:12:24;;;;;;;2.90;1.88;;;-0.70;68.00;;;;;;5057439;28;20325;-68
2021/01/09 02:14:56;;;;;;;2.40;1.38;;;-0.60;67.30;;;;;;5057369;28;20459;-68
2021/01/09 02:17:23;;;;;;;2.92;2.15;;;-0.50;68.20;;;;;;5057527;28;20021;-68
2021/01/09 02:19:50;;;;;;;2.25;1.75;;;-0.60;68.20;;;;;;5057232;28;20430;-68
2021/01/09 02:22:17;;;;;;;2.33;1.70;;;-0.70;66.50;;;;;;5057558;28;20041;-68
2021/01/09 02:24:44;;;;;;;2.50;1.40;;;-0.60;65.70;;;;;;5057319;28;20471;-68
2021/01/09 02:27:10;;;;;;;2.05;1.48;;;-0.60;65.40;;;;;;5057089;28;20049;-68
2021/01/09 02:29:43;;;;;;;3.05;1.58;;;-0.40;64.00;;;;;;5057109;28;20112;-68
2021/01/09 02:32:11;;;;;;;2.63;1.63;;;-0.40;63.70;;;;;;5057286;28;20074;-68
2021/01/09 02:34:42;;;;;;;2.33;1.48;;;-0.30;62.60;;;;;;5056822;28;20021;-68
2021/01/09 02:37:09;;;;;;;2.10;1.42;;;-0.30;62.20;;;;;;5057326;28;20060;-68
2021/01/09 02:39:35;;;;;;;1.70;1.20;;;-0.30;61.30;;;;;;5056931;28;20021;-68
2021/01/09 02:42:02;;;;;;;2.38;1.58;;;-0.20;59.60;;;;;;5056887;28;20040;-68
2021/01/09 02:44:28;;;;;;;2.42;1.48;;;-0.10;59.10;;;;;;5057106;28;20323;-68
2021/01/09 02:46:53;;;;;;;2.35;1.55;;;-0.10;60.80;;;;;;5056913;28;20029;-68
2021/01/09 02:49:19;;;;;;;2.13;1.20;;;-0.10;60.80;;;;;;5056809;28;20025;-68
2021/01/09 02:51:45;;;;;;;2.63;1.48;;;-0.20;61.20;;;;;;5056807;28;20411;-68
2021/01/09 02:54:10;;;;;;;1.85;1.10;;;-0.20;59.90;;;;;;5057026;28;20409;-68
2021/01/09 02:56:36;;;;;;;2.88;1.35;;;-0.20;60.20;;;;;;5057245;28;20056;-68
2021/01/09 02:59:02;;;;;;;2.10;1.30;;;-0.10;59.70;;;;;;5056945;28;20053;-68
2021/01/09 03:01:29;;;;;;;2.10;1.20;;;-0.10;60.70;;;;;;5056663;28;20025;-68
2021/01/09 03:03:55;;;;;;;1.35;1.17;;;-0.10;60.20;;;;;;5056911;28;20025;-68
2021/01/09 03:06:20;;;;;;;1.63;1.23;;;-0.10;59.80;;;;;;5056830;28;20027;-68
2021/01/09 03:08:46;;;;;;;1.75;1.20;;;-0.10;61.30;;;;;;5056488;28;20104;-68
2021/01/09 03:11:12;;;;;;;2.35;0.90;;;-0.10;58.60;;;;;;5056541;28;20025;-68
2021/01/09 03:13:37;;;;;;;2.22;1.27;;;0.00;57.40;;;;;;5056533;28;20064;-68
2021/01/09 03:16:04;;;;;;;2.13;1.20;;;0.10;56.70;;;;;;5055513;28;20120;-68
2021/01/09 03:18:29;;;;;;;2.25;1.00;;;0.10;57.40;;;;;;5056522;28;20079;-68
2021/01/09 03:20:55;;;;;;;1.80;1.33;;;0.10;56.60;;;;;;5056554;28;20032;-68
2021/01/09 03:23:20;;;;;;;2.08;1.30;;;0.10;55.80;;;;;;5056489;28;20071;-68
2021/01/09 03:25:46;;;;;;;1.80;1.13;;;0.10;56.80;;;;;;5056297;28;20048;-69
2021/01/09 03:28:12;;;;;;;1.67;1.10;;;0.10;56.50;;;;;;5056435;28;20082;-68
2021/01/09 03:30:37;;;;;;;1.58;1.02;;;0.10;55.60;;;;;;5056641;28;20091;-68
2021/01/09 03:33:03;;;;;;;1.77;1.10;;;0.20;55.80;;;;;;5056485;28;20076;-68
2021/01/09 03:35:29;;;;;;;1.98;1.15;;;0.20;56.30;;;;;;5055279;28;20021;-68
2021/01/09 03:37:55;;;;;;;1.45;0.95;;;0.00;56.10;;;;;;5056361;28;20049;-68
2021/01/09 03:40:20;;;;;;;1.25;0.80;;;0.00;56.30;;;;;;5056334;28;20036;-68
2021/01/09 03:42:46;;;;;;;2.38;1.10;;;0.00;56.50;;;;;;5056291;28;20078;-68
2021/01/09 03:45:12;;;;;;;2.08;0.98;;;0.00;56.00;;;;;;5056484;28;20029;-68
2021/01/09 03:47:38;;;;;;;1.75;1.00;;;0.10;55.20;;;;;;5060061;28;20036;-68
2021/01/09 03:50:05;;;;;;;2.63;1.55;;;0.20;55.10;;;;;;5060066;28;20346;-68
2021/01/09 03:52:30;;;;;;;2.05;0.93;;;0.20;54.70;;;;;;5060637;28;20017;-68
2021/01/09 03:54:56;;;;;;;1.83;0.88;;;0.20;55.10;;;;;;5060105;28;20104;-68
2021/01/09 03:57:22;;;;;;;2.92;1.08;;;0.30;54.10;;;;;;5060287;28;20025;-68
2021/01/09 03:59:48;;;;;;;2.35;1.02;;;0.30;54.60;;;;;;5060052;28;20029;-68
2021/01/09 04:02:14;;;;;;;1.50;1.00;;;0.30;55.20;;;;;;5060212;28;20071;-68
2021/01/09 04:04:40;;;;;;;1.33;0.82;;;0.20;54.60;;;;;;5060068;28;20037;-68
2021/01/09 04:07:05;;;;;;;2.17;1.13;;;0.10;55.20;;;;;;5060141;28;20111;-68
2021/01/09 04:09:31;;;;;;;1.48;1.02;;;0.00;56.40;;;;;;5059708;28;20043;-68
2021/01/09 04:11:56;;;;;;;2.45;1.00;;;-0.10;58.20;;;;;;5060014;28;20021;-68
2021/01/09 04:14:22;;;;;;;1.60;1.20;;;-0.20;60.00;;;;;;5059920;28;20029;-68
2021/01/09 04:16:48;;;;;;;1.45;1.05;;;-0.40;60.80;;;;;;5059677;28;20021;-68
2021/01/09 04:19:13;;;;;;;2.72;1.10;;;-0.60;61.70;;;;;;5059616;28;20436;-68
2021/01/09 04:21:46;;;;;;;1.80;1.00;;;-0.70;63.00;;;;;;5059610;28;20028;-68
2021/01/09 04:24:12;;;;;;;1.50;1.00;;;-0.80;64.00;;;;;;5059708;28;20037;-68
2021/01/09 04:26:38;;;;;;;1.70;1.20;;;-0.90;64.70;;;;;;5059408;28;20491;-69
2021/01/09 04:29:04;;;;;;;2.67;1.30;;;-1.00;64.40;;;;;;5059333;28;20033;-68
2021/01/09 04:31:30;;;;;;;2.20;1.52;;;-1.10;63.50;;;;;;5059646;28;20419;-68
2021/01/09 04:33:57;;;;;;;1.70;1.20;;;-1.00;61.70;;;;;;5059362;28;20021;-68
2021/01/09 04:36:23;;;;;;;2.63;1.38;;;-0.80;60.10;;;;;;5059299;28;20092;-68
2021/01/09 04:38:48;;;;;;;1.63;1.00;;;-0.70;59.50;;;;;;5059231;28;20386;-68
2021/01/09 04:41:19;;;;;;;4.15;1.67;;;-0.50;58.90;;;;;;5059187;28;20322;-68
2021/01/09 04:43:45;;;;;;;1.85;1.10;;;-0.40;58.50;;;;;;5059042;28;20119;-68
2021/01/09 04:46:12;;;;;;;1.90;1.17;;;-0.40;58.20;;;;;;5059058;28;20017;-68
2021/01/09 04:48:39;;;;;;;1.50;0.80;;;-0.30;57.50;;;;;;5059344;28;20036;-68
2021/01/09 04:51:04;;;;;;;1.55;0.93;;;-0.20;57.50;;;;;;5058985;28;20029;-68
2021/01/09 04:53:31;;;;;;;1.48;0.98;;;-0.20;57.60;;;;;;5058915;28;20356;-68
2021/01/09 04:55:57;;;;;;;1.25;0.95;;;-0.20;57.40;;;;;;5058924;28;20063;-68
2021/01/09 04:58:23;;;;;;;1.45;0.95;;;-0.20;56.00;;;;;;5058799;28;20037;-68
2021/01/09 05:00:54;;;;;;;1.55;0.88;;;-0.20;56.70;;;;;;5058867;28;20021;-68
2021/01/09 05:03:21;;;;;;;1.75;1.10;;;-0.30;56.10;;;;;;5058777;28;20416;-68
2021/01/09 05:05:48;;;;;;;1.13;0.68;;;-0.20;55.50;;;;;;5058798;28;20029;-68
2021/01/09 05:08:14;;;;;;;1.58;1.00;;;-0.20;53.70;;;;;;5058967;28;20045;-68
2021/01/09 05:10:40;;;;;;;1.73;1.10;;;-0.10;53.90;;;;;;5058574;28;20137;-68
2021/01/09 05:13:05;;;;;;;0.98;0.70;;;0.00;54.30;;;;;;5058709;28;20025;-68
2021/01/09 05:15:38;;;;;;;1.60;0.95;;;0.00;55.00;;;;;;5058568;28;20143;-68
2021/01/09 05:18:05;;;;;;;1.67;1.15;;;0.00;54.50;;;;;;5058866;28;20044;-68
2021/01/09 05:20:31;;;;;;;1.40;1.05;;;-0.10;55.30;;;;;;5057435;28;20115;-68
2021/01/09 05:22:59;;;;;;;1.58;1.05;;;-0.20;55.70;;;;;;5058459;28;20429;-68
2021/01/09 05:25:26;;;;;;;2.10;1.05;;;-0.20;56.10;;;;;;5058234;28;20477;-68
2021/01/09 05:27:57;;;;;;;1.63;1.05;;;-0.10;55.30;;;;;;5058885;28;20368;-68
2021/01/09 05:30:23;;;;;;;2.08;1.10;;;0.10;54.40;;;;;;5058528;28;20052;-68
2021/01/09 05:32:50;;;;;;;1.55;1.08;;;0.30;54.40;;;;;;5058250;28;20021;-68
2021/01/09 05:35:16;;;;;;;1.50;0.98;;;0.40;54.10;;;;;;5058494;28;20312;-68
2021/01/09 05:37:47;;;;;;;2.08;1.15;;;0.40;53.80;;;;;;5058431;28;20017;-68
2021/01/09 05:40:13;;;;;;;1.83;1.20;;;0.30;54.30;;;;;;5058419;28;20039;-68
2021/01/09 05:42:39;;;;;;;1.63;0.93;;;0.10;55.00;;;;;;5058077;28;20028;-68
2021/01/09 05:45:07;;;;;;;1.30;1.00;;;0.10;54.80;;;;;;5058043;28;20025;-68
2021/01/09 05:47:32;;;;;;;1.75;1.35;;;0.20;54.30;;;;;;5057946;28;20532;-68
2021/01/09 05:50:00;;;;;;;1.42;0.88;;;0.10;54.00;;;;;;5058073;28;20123;-68
2021/01/09 05:52:28;;;;;;;2.97;1.00;;;0.00;54.50;;;;;;5058221;28;20355;-69
2021/01/09 05:54:58;;;;;;;1.27;0.95;;;0.00;54.50;;;;;;5057852;28;20029;-68
2021/01/09 05:57:28;;;;;;;1.40;1.00;;;-0.20;55.00;;;;;;5057808;28;20413;-69
2021/01/09 05:59:57;;;;;;;1.40;0.90;;;-0.40;56.10;;;;;;5058002;28;20321;-68
2021/01/09 06:02:25;;;;;;;1.42;0.80;;;-0.30;55.00;;;;;;5057949;28;20028;-68
2021/01/09 06:04:58;;;;;;;1.75;1.08;;;-0.30;55.00;;;;;;5057585;28;20032;-68
2021/01/09 06:07:33;;;;;;;1.52;1.10;;;-0.40;54.90;;;;;;5057694;28;20060;-68
2021/01/09 06:09:58;;;;;;;1.48;0.95;;;-0.30;54.50;;;;;;5057100;28;20037;-68
2021/01/09 06:12:26;;;;;;;1.33;1.00;;;-0.30;54.50;;;;;;5057578;28;20029;-68
2021/01/09 06:14:53;;;;;;;1.15;0.85;;;-0.10;54.00;;;;;;5057513;28;20032;-69
2021/01/09 06:17:21;;;;;;;1.70;0.80;;;-0.10;54.20;;;;;;5057408;28;20102;-68
2021/01/09 06:19:47;;;;;;;1.15;0.80;;;0.10;53.30;;;;;;5057339;28;20056;-68
2021/01/09 06:22:13;;;;;;;0.90;0.65;;;0.20;52.40;;;;;;5057572;28;20025;-68
2021/01/09 06:24:39;;;;;;;1.35;0.90;;;0.30;51.70;;;;;;5057218;28;20032;-68
2021/01/09 06:27:08;;;;;;;1.02;0.70;;;0.40;50.70;;;;;;5057118;28;20045;-68
2021/01/09 06:29:37;;;;;;;1.20;0.80;;;0.60;50.10;;;;;;5057208;28;20112;-68
2021/01/09 06:32:08;;;;;;;1.52;0.88;;;0.60;49.80;;;;;;5057137;28;20025;-68
2021/01/09 06:34:39;;;;;;;1.88;0.90;;;0.70;50.20;;;;;;5057304;28;20087;-68
2021/01/09 06:37:05;;;;;;;1.45;0.60;;;0.60;50.00;;;;;;5057387;28;20013;-68
2021/01/09 06:39:36;;;;;;;1.98;0.85;;;0.70;49.90;;;;;;5057266;28;20083;-68
2021/01/09 06:42:05;;;;;;;1.23;0.80;;;0.70;49.80;;;;;;5057262;28;20473;-68
2021/01/09 06:44:32;;;;;;;1.60;1.08;;;0.70;50.50;;;;;;5056877;28;20029;-68
2021/01/09 06:46:57;;;;;;;1.33;0.70;;;0.70;50.20;;;;;;5057205;28;20032;-68
2021/01/09 06:49:27;;;;;;;0.98;0.63;;;0.60;50.50;;;;;;5056739;28;20367;-68
2021/01/09 06:51:55;;;;;;;1.17;0.70;;;0.70;48.30;;;;;;5056840;28;20482;-68
2021/01/09 06:54:28;;;;;;;1.33;0.70;;;0.80;48.60;;;;;;5056652;28;20028;-68
2021/01/09 06:57:03;;;;;;;1.45;0.80;;;0.90;49.80;;;;;;5057292;28;20290;-68
2021/01/09 06:59:30;;;;;;;1.80;0.80;;;0.80;49.10;;;;;;5057045;28;20040;-68
2021/01/09 07:02:11;;;;;;;1.58;0.90;;;0.80;51.00;;;;;;5056699;28;20025;-68
2021/01/09 07:04:56;;;;;;;1.45;0.77;;;0.60;51.20;;;;;;5056916;28;20033;-68
2021/01/09 07:07:25;;;;;;;4.50;0.90;;;0.50;52.80;;;;;;5056992;28;20021;-68
2021/01/09 07:09:51;;;;;;;0.90;0.75;;;0.40;51.60;;;;;;5056517;28;20086;-69
2021/01/09 07:12:18;;;;;;;1.70;0.70;;;0.30;51.40;;;;;;5056919;28;20087;-68
2021/01/09 07:14:44;;;;;;;1.60;1.00;;;0.30;51.80;;;;;;5056625;28;20025;-68
2021/01/09 07:17:14;;;;;;;1.00;0.60;;;0.30;52.60;;;;;;5056557;28;20021;-68
2021/01/09 07:19:43;;;;;;;0.88;0.60;;;0.30;52.20;;;;;;5056485;28;20033;-68
2021/01/09 07:22:09;;;;;;;1.27;0.77;;;0.30;51.70;;;;;;5058644;28;20059;-68
2021/01/09 07:24:38;;;;;;;1.13;0.70;;;0.40;51.20;;;;;;5060640;28;20029;-68
2021/01/09 07:27:07;;;;;;;3.97;0.82;;;0.50;51.40;;;;;;5060531;28;20049;-68
2021/01/09 07:29:42;;;;;;;0.90;0.60;;;0.50;51.90;;;;;;5060664;28;20335;-68
2021/01/09 07:32:07;;;;;;;1.77;0.90;;;0.60;49.70;;;;;;5060560;28;20025;-68
2021/01/09 07:34:35;;;;;;;1.05;0.70;;;0.60;51.40;;;;;;5060733;28;20018;-68
2021/01/09 07:37:02;;;;;;;1.38;0.90;;;0.40;50.40;;;;;;5060758;28;20056;-68
2021/01/09 07:39:28;;;;;;;1.55;1.00;;;0.40;50.40;;;;;;5060446;28;20115;-68
2021/01/09 07:41:55;;;;;;;0.85;0.60;;;0.30;52.30;;;;;;5060576;28;20056;-68
2021/01/09 07:44:23;;;;;;;1.33;0.80;;;0.10;52.20;;;;;;5060397;28;20028;-68
2021/01/09 07:46:58;;;;;;;2.10;1.00;;;0.10;52.80;;;;;;5060281;28;20444;-68
2021/01/09 07:49:31;;;;;;;0.77;0.50;;;0.20;51.50;;;;;;5060391;28;20029;-68
2021/01/09 07:52:07;;;;;;;1.40;0.90;;;0.40;51.00;;;;;;5060215;28;20071;-68
2021/01/09 07:54:34;;;;;;;1.75;1.13;;;0.30;51.60;;;;;;5060161;28;20021;-68
2021/01/09 07:57:00;;;;;;;2.08;1.38;;;0.30;51.70;;;;;;5060337;28;20040;-68
2021/01/09 07:59:26;;;;;;;1.50;1.13;;;0.30;52.00;;;;;;5060052;28;20033;-68
2021/01/09 08:01:51;;;;;;;1.60;0.90;;;0.20;51.90;;;;;;5059970;28;20029;-68
2021/01/09 08:04:17;;;;;;;1.30;0.70;;;0.30;51.90;;;;;;5060087;28;20059;-68
2021/01/09 08:06:43;;;;;;;1.10;0.70;;;0.40;51.70;;;;;;5060212;28;20028;-68
2021/01/09 08:09:09;;;;;;;1.55;0.88;;;0.60;51.50;;;;;;5059748;28;20102;-68
2021/01/09 08:11:45;;;;;;;1.45;0.90;;;0.70;51.10;;;;;;5059822;28;20032;-68
2021/01/09 08:14:12;;;;;;;1.20;0.85;;;0.80;50.60;;;;;;5059908;28;20060;-68
2021/01/09 08:16:38;;;;;;;1.00;0.60;;;1.00;49.60;;;;;;5059740;28;20032;-68
2021/01/09 08:19:16;;;;;;;1.17;0.90;;;1.20;49.30;;;;;;5059639;28;20318;-68
2021/01/09 08:21:45;;;;;;;1.50;1.20;;;1.20;50.10;;;;;;5059655;28;20021;-69
2021/01/09 08:24:26;;;;;;;1.50;1.00;;;1.20;49.90;;;;;;5059495;28;20029;-68
2021/01/09 08:26:53;;;;;;;1.25;0.75;;;1.20;49.90;;;;;;5059613;28;20055;-68
2021/01/09 08:29:26;;;;;;;1.90;0.85;;;1.30;51.70;;;;;;5059633;28;20178;-68
2021/01/09 08:31:53;;;;;;;1.77;1.17;;;1.40;49.70;;;;;;5059012;28;20100;-68
2021/01/09 08:34:20;;;;;;;2.55;1.00;;;1.60;50.00;;;;;;5059369;28;20029;-68
2021/01/09 08:36:50;;;;;;;1.02;0.77;;;1.70;50.10;;;;;;5059315;28;20096;-68
2021/01/09 08:39:15;;;;;;;2.30;1.05;;;1.80;51.70;;;;;;5059271;28;20028;-69
2021/01/09 08:41:42;;;;;;;1.27;1.05;;;1.90;52.60;;;;;;5059277;28;20021;-68
2021/01/09 08:44:14;;;;;;;1.15;0.88;;;2.00;53.00;;;;;;5059080;28;20075;-68
2021/01/09 08:46:41;;;;;;;1.00;0.80;;;2.10;51.50;;;;;;5059133;28;20100;-68
2021/01/09 08:49:25;;;;;;;0.80;0.50;;;2.20;48.70;;;;;;5059391;28;20048;-69
2021/01/09 08:52:06;;;;;;;1.20;0.90;;;2.20;48.90;;;;;;5059069;28;20413;-68
2021/01/09 08:54:33;;;;;;;0.95;0.60;;;2.30;48.60;;;;;;5059079;28;20036;-68
2021/01/09 08:57:01;;;;;;;1.95;0.98;;;2.30;48.70;;;;;;5058975;28;20053;-69
2021/01/09 08:59:27;;;;;;;2.65;1.00;;;2.30;48.60;;;;;;5058944;28;20029;-68
2021/01/09 09:02:04;;;;;;;1.55;0.98;;;2.30;49.40;;;;;;5058892;28;20112;-68
2021/01/09 09:04:32;;;;;;;2.25;0.77;;;2.40;46.10;;;;;;5058754;28;20475;-68
2021/01/09 09:07:06;;;;;;;1.25;0.82;;;2.40;48.40;;;;;;5058814;28;20025;-68
2021/01/09 09:09:33;;;;;;;1.60;1.00;;;2.50;46.40;;;;;;5058728;28;20299;-69
2021/01/09 09:12:00;;;;;;;1.58;0.93;;;2.50;49.90;;;;;;5057617;28;20017;-69
2021/01/09 09:14:26;;;;;;;1.13;0.88;;;2.60;48.80;;;;;;5058539;28;20409;-68
2021/01/09 09:17:04;;;;;;;1.40;0.75;;;2.60;50.80;;;;;;5058865;28;20078;-69
2021/01/09 09:19:35;;;;;;;1.65;0.98;;;2.60;49.60;;;;;;5058800;28;20021;-69
2021/01/09 09:22:01;;;;;;;1.50;1.20;;;2.60;48.60;;;;;;5058472;28;20448;-68
2021/01/09 09:24:39;;;;;;;2.30;1.38;;;2.60;50.50;;;;;;5058337;28;20060;-69
2021/01/09 09:27:24;;;;;;;2.17;1.23;;;2.70;48.90;;;;;;5058289;28;20045;-69
2021/01/09 09:30:10;;;;;;;2.10;1.38;;;2.90;50.90;;;;;;5057173;28;20099;-68
2021/01/09 09:32:37;;;;;;;1.88;1.10;;;3.00;48.40;;;;;;5058552;28;20389;-69
2021/01/09 09:35:21;;;;;;;1.92;0.98;;;3.10;50.10;;;;;;5058179;28;20104;-69
2021/01/09 09:37:47;;;;;;;1.98;1.08;;;3.10;49.50;;;;;;5058500;28;20079;-69
2021/01/09 09:40:30;;;;;;;1.60;1.00;;;3.10;50.00;;;;;;5058163;28;20025;-69
2021/01/09 09:43:17;;;;;;;1.48;0.93;;;3.10;49.40;;;;;;5057784;28;20025;-69
2021/01/09 09:46:04;;;;;;;2.75;1.13;;;3.20;50.10;;;;;;5058049;28;20027;-68
2021/01/09 09:48:30;;;;;;;3.92;1.50;;;3.30;48.30;;;;;;5058276;28;20025;-68
2021/01/09 09:51:06;;;;;;;2.38;1.23;;;3.50;49.10;;;;;;5057871;28;20033;-69
2021/01/09 09:53:35;;;;;;;1.85;1.17;;;3.90;46.50;;;;;;5058152;28;20024;-69
2021/01/09 09:56:18;;;;;;;2.22;1.40;;;4.10;47.80;;;;;;5058097;28;20420;-69
2021/01/09 09:58:44;;;;;;;3.15;1.70;;;4.40;47.40;;;;;;5057749;28;20025;-69
2021/01/09 10:01:21;;;;;;;2.00;1.10;;;4.60;47.50;;;;;;5058053;28;20025;-69
2021/01/09 10:03:50;;;;;;;1.90;1.20;;;4.80;49.20;;;;;;5056589;28;20025;-69
2021/01/09 10:06:17;;;;;;;2.22;1.40;;;5.00;47.00;;;;;;5057678;28;20040;-69
2021/01/09 10:08:43;;;;;;;3.25;1.10;;;5.30;45.20;;;;;;5053483;28;20033;-69
2021/01/09 10:11:09;;;;;;;1.90;1.33;;;5.40;45.00;;;;;;5046800;28;20041;-69
2021/01/09 10:13:35;;;;;;;1.98;1.30;;;5.50;46.60;;;;;;5037842;28;20025;-69
2021/01/09 10:16:01;;;;;;;1.83;1.25;;;5.50;43.90;;;;;;5037500;28;20025;-69
2021/01/09 10:18:29;;;;;;;2.38;1.40;;;5.50;43.80;;;;;;5037692;28;20048;-69
2021/01/09 10:20:56;;;;;;;2.80;1.67;;;5.60;44.70;;;;;;5037435;28;20030;-69
2021/01/09 10:23:23;;;;;;;2.22;1.33;;;5.60;45.80;;;;;;5037611;28;20371;-69
2021/01/09 10:25:48;;;;;;;2.20;1.30;;;5.70;44.30;;;;;;5037143;28;20310;-69
2021/01/09 10:28:14;;;;;;;2.28;1.27;;;5.50;43.40;;;;;;5036271;28;20060;-69
2021/01/09 10:30:41;;;;;;;2.85;1.15;;;5.50;44.60;;;;;;5036146;28;20046;-69
2021/01/09 10:33:07;;;;;;;2.25;1.00;;;5.50;44.70;;;;;;5037448;28;20083;-69
2021/01/09 10:35:33;;;;;;;1.80;1.10;;;5.60;44.50;;;;;;5037479;28;20033;-69
2021/01/09 10:37:59;;;;;;;2.72;1.77;;;5.70;46.60;;;;;;5037394;28;20022;-69
2021/01/09 10:40:26;;;;;;;1.85;1.10;;;5.70;46.80;;;;;;5037120;28;20075;-69
2021/01/09 10:42:52;;;;;;;1.85;1.00;;;5.70;46.30;;;;;;5037249;28;20025;-69
2021/01/09 10:45:18;;;;;;;2.13;0.90;;;5.50;44.60;;;;;;5037050;28;20037;-69
2021/01/09 10:47:44;;;;;;;1.45;0.95;;;5.30;42.80;;;;;;5037060;28;20048;-69
2021/01/09 10:50:10;;;;;;;1.90;0.90;;;5.10;43.20;;;;;;5037114;28;20025;-69
2021/01/09 10:52:36;;;;;;;1.30;0.70;;;5.20;42.50;;;;;;5035923;28;20017;-69
2021/01/09 10:55:04;;;;;;;1.48;0.50;;;5.30;41.80;;;;;;5036882;28;20030;-69
2021/01/09 10:57:30;;;;;;;0.80;0.63;;;5.40;42.00;;;;;;5035848;28;20500;-69
2021/01/09 10:59:55;;;;;;;1.45;0.80;;;5.70;39.90;;;;;;5035765;28;20061;-69
2021/01/09 11:02:21;;;;;;;0.95;0.70;;;5.60;41.00;;;;;;5036808;28;20406;-69
2021/01/09 11:04:47;;;;;;;1.30;0.70;;;5.70;42.20;;;;;;5036854;28;20325;-69
2021/01/09 11:07:13;;;;;;;1.45;0.60;;;5.90;42.40;;;;;;5037059;28;20041;-69
2021/01/09 11:09:38;;;;;;;1.13;0.77;;;5.80;40.50;;;;;;5036654;28;20065;-69
2021/01/09 11:12:04;;;;;;;1.63;0.90;;;5.30;41.00;;;;;;5036931;28;20021;-69
2021/01/09 11:14:30;;;;;;;2.20;1.17;;;4.90;41.90;;;;;;5036843;28;20017;-69
2021/01/09 11:16:59;;;;;;;1.25;0.80;;;4.70;42.10;;;;;;5036908;28;20034;-69
2021/01/09 11:19:26;;;;;;;1.83;1.15;;;4.40;42.30;;;;;;5036528;28;20418;-68
2021/01/09 11:22:00;;;;;;;1.67;0.80;;;4.30;42.90;;;;;;5035566;28;20429;-69
2021/01/09 11:24:30;;;;;;;1.52;1.05;;;4.00;43.00;;;;;;5036567;28;20112;-69
2021/01/09 11:27:06;;;;;;;1.65;0.98;;;3.70;44.20;;;;;;5036406;28;20045;-69
2021/01/09 11:29:32;;;;;;;1.55;0.90;;;3.50;44.50;;;;;;5036615;28;20332;-69
2021/01/09 11:32:03;;;;;;;1.40;0.93;;;3.30;43.90;;;;;;5036517;28;20030;-69
2021/01/09 11:34:29;;;;;;;1.63;1.10;;;3.20;44.90;;;;;;5036457;28;20022;-68
2021/01/09 11:36:56;;;;;;;2.15;1.20;;;3.20;44.90;;;;;;5036509;28;20025;-69
2021/01/09 11:39:22;;;;;;;2.03;1.27;;;3.20;45.10;;;;;;5036368;28;20432;-69
2021/01/09 11:41:48;;;;;;;1.17;0.90;;;3.00;47.00;;;;;;5036394;28;20057;-68
2021/01/09 11:44:15;;;;;;;2.08;1.17;;;3.00;45.10;;;;;;5035216;28;20037;-68
2021/01/09 11:46:40;;;;;;;3.13;1.08;;;3.10;46.20;;;;;;5037188;28;20021;-68
2021/01/09 11:49:06;;;;;;;1.25;0.90;;;3.30;46.20;;;;;;5036541;28;20429;-68
2021/01/09 11:51:32;;;;;;;1.45;0.90;;;3.40;45.60;;;;;;5036336;28;20028;-69
2021/01/09 11:53:58;;;;;;;2.10;0.95;;;3.60;44.90;;;;;;5036296;28;20460;-69
2021/01/09 11:56:24;;;;;;;1.17;0.77;;;3.90;43.30;;;;;;5036661;28;20140;-69
2021/01/09 11:58:50;;;;;;;1.40;0.82;;;3.90;43.20;;;;;;5036549;28;20041;-68
2021/01/09 12:01:15;;;;;;;2.20;1.35;;;3.90;42.90;;;;;;5036221;28;20047;-69
2021/01/09 12:03:41;;;;;;;1.80;1.17;;;3.90;44.00;;;;;;5036124;28;20029;-69
2021/01/09 12:06:07;;;;;;;2.13;1.35;;;4.00;44.90;;;;;;5036456;28;20364;-68
2021/01/09 12:08:34;;;;;;;1.33;0.90;;;4.20;44.30;;;;;;5039638;28;20029;-69
2021/01/09 12:11:00;;;;;;;1.30;1.00;;;4.20;43.70;;;;;;5040086;28;20021;-68
2021/01/09 12:13:25;;;;;;;1.40;0.75;;;4.30;44.40;;;;;;5040030;28;20025;-69
2021/01/09 12:15:51;;;;;;;1.40;0.82;;;4.50;45.90;;;;;;5039933;28;20034;-69
2021/01/09 12:18:19;;;;;;;1.08;0.70;;;4.80;45.00;;;;;;5038728;28;20076;-69
2021/01/09 12:20:50;;;;;;;1.65;0.80;;;5.10;43.50;;;;;;5039732;28;20029;-68
2021/01/09 12:23:15;;;;;;;1.00;0.50;;;5.30;42.30;;;;;;5039955;28;20422;-68
2021/01/09 12:25:42;;;;;;;2.50;0.70;;;5.20;40.90;;;;;;5039454;28;20050;-69
2021/01/09 12:28:08;;;;;;;1.30;1.10;;;5.30;43.80;;;;;;5039598;28;20029;-69
2021/01/09 12:30:34;;;;;;;1.48;1.17;;;5.50;43.40;;;;;;5039436;28;20479;-69
2021/01/09 12:33:00;;;;;;;2.15;1.42;;;5.60;43.90;;;;;;5039526;28;20022;-69
2021/01/09 12:35:26;;;;;;;3.67;1.75;;;5.60;44.10;;;;;;5039439;28;20041;-69
2021/01/09 12:37:54;;;;;;;2.95;1.90;;;5.50;44.80;;;;;;5039443;28;20045;-68
2021/01/09 12:40:21;;;;;;;2.13;1.48;;;5.50;45.10;;;;;;5038287;28;20036;-69
2021/01/09 12:42:47;;;;;;;2.13;1.20;;;5.40;44.90;;;;;;5039329;28;20322;-69
2021/01/09 12:45:13;;;;;;;2.38;1.55;;;5.30;42.40;;;;;;5039272;28;20084;-68
2021/01/09 12:47:39;;;;;;;1.58;1.35;;;5.30;43.70;;;;;;5038188;28;20033;-69
2021/01/09 12:50:05;;;;;;;2.05;1.40;;;5.20;43.50;;;;;;5039061;28;20029;-69
2021/01/09 12:52:31;;;;;;;2.55;1.45;;;5.10;43.40;;;;;;5039159;28;20436;-69
2021/01/09 12:54:56;;;;;;;2.28;1.20;;;5.00;43.10;;;;;;5038972;28;20080;-69